KORF

Norfolk International Airport

Norfolk, Virginia, USA
METAR KORF 160151Z 28007KT 4SM BR FEW002 OVC007 13/13 A2987 RMK AO2 RAB04E29 SLP116 P0000 T01280128
Observed Flight Rules
Dec-16 @ 01:51 UTC (11 minutes ago) Instrument Flight Rules
Wind Visibility Clouds Conditions
280° at 7 knots 4 miles
  • Few at 200' AGL
  • Overcast at 700' AGL
  • Mist
Temperatures Readings Precipitation
Current 13°C / 55°F
Dewpoint 13°C / 55°F
Humidity 100%
Altimeter 29.87" Hg
Pressure 1011.6 hPa
Elevation 14
Current Rain 0.005
METAR KORF 160151Z 28007KT 4SM BR FEW002 OVC007 13/13 A2987 RMK AO2 RAB04E29 SLP116 P0000 T01280128
Observed Flight Rules
Dec-16 @ 01:51 UTC
(11 minutes ago)
IFR
Wind Visibility
280° at 7 knots 4 miles
Clouds
  • Few at 200' AGL
  • Overcast at 700' AGL
Conditions
  • Mist
Temperature Dewpoint
13°C / 55°F 13°C / 55°F
Humidity Altimeter Pressure
100% 29.87" Hg 1011.6 hPa
Current Rain
0.005